sensor_id;sensor_type;location;lat;lon;timestamp;temperature;humidity
780;DHT22;373;49.342;8.146;2022-12-18T00:01:24;-5.80;99.90
780;DHT22;373;49.342;8.146;2022-12-18T00:03:52;-5.70;99.90
780;DHT22;373;49.342;8.146;2022-12-18T00:06:20;-5.70;99.90
780;DHT22;373;49.342;8.146;2022-12-18T00:08:48;-5.70;99.90
780;DHT22;373;49.342;8.146;2022-12-18T00:11:19;-5.50;99.90
780;DHT22;373;49.342;8.146;2022-12-18T00:13:48;-5.40;99.90
780;DHT22;373;49.342;8.146;2022-12-18T00:16:19;-5.40;99.90
780;DHT22;373;49.342;8.146;2022-12-18T00:18:47;-5.50;99.90
780;DHT22;373;49.342;8.146;2022-12-18T00:21:17;-5.30;99.90
780;DHT22;373;49.342;8.146;2022-12-18T00:23:45;-5.10;99.90
780;DHT22;373;49.342;8.146;2022-12-18T00:26:16;-4.90;99.90
780;DHT22;373;49.342;8.146;2022-12-18T00:28:46;-4.90;99.90
780;DHT22;373;49.342;8.146;2022-12-18T00:31:16;-4.80;99.90
780;DHT22;373;49.342;8.146;2022-12-18T00:33:44;-4.60;99.90
780;DHT22;373;49.342;8.146;2022-12-18T00:36:17;-4.60;99.90
780;DHT22;373;49.342;8.146;2022-12-18T00:38:45;-4.80;99.90
780;DHT22;373;49.342;8.146;2022-12-18T00:41:18;-4.70;99.90
780;DHT22;373;49.342;8.146;2022-12-18T00:44:00;-4.60;99.90
780;DHT22;373;49.342;8.146;2022-12-18T00:46:27;-4.50;99.90
780;DHT22;373;49.342;8.146;2022-12-18T00:48:55;-4.40;99.90
780;DHT22;373;49.342;8.146;2022-12-18T00:51:22;-4.30;99.90
780;DHT22;373;49.342;8.146;2022-12-18T00:53:49;-4.40;99.90
780;DHT22;373;49.342;8.146;2022-12-18T00:56:17;-4.30;99.90
780;DHT22;373;49.342;8.146;2022-12-18T00:58:44;-4.10;99.90
780;DHT22;373;49.342;8.146;2022-12-18T01:01:13;-4.30;99.90
780;DHT22;373;49.342;8.146;2022-12-18T01:03:41;-4.30;99.90
780;DHT22;373;49.342;8.146;2022-12-18T01:06:10;-4.20;99.90
780;DHT22;373;49.342;8.146;2022-12-18T01:08:38;-4.30;99.90
780;DHT22;373;49.342;8.146;2022-12-18T01:11:07;-4.10;99.90
780;DHT22;373;49.342;8.146;2022-12-18T01:13:35;-4.00;99.90
780;DHT22;373;49.342;8.146;2022-12-18T01:16:02;-4.00;99.90
780;DHT22;373;49.342;8.146;2022-12-18T01:18:31;-3.90;99.90
780;DHT22;373;49.342;8.146;2022-12-18T01:20:58;-3.90;99.90
780;DHT22;373;49.342;8.146;2022-12-18T01:23:26;-4.20;99.90
780;DHT22;373;49.342;8.146;2022-12-18T01:25:53;-4.20;99.90
780;DHT22;373;49.342;8.146;2022-12-18T01:28:20;-4.10;99.90
780;DHT22;373;49.342;8.146;2022-12-18T01:30:47;-3.70;99.90
780;DHT22;373;49.342;8.146;2022-12-18T01:33:15;-3.70;99.90
780;DHT22;373;49.342;8.146;2022-12-18T01:35:44;-3.90;99.90
780;DHT22;373;49.342;8.146;2022-12-18T01:38:14;-4.00;99.90
780;DHT22;373;49.342;8.146;2022-12-18T01:40:42;-3.90;99.90
780;DHT22;373;49.342;8.146;2022-12-18T01:43:09;-3.80;99.90
780;DHT22;373;49.342;8.146;2022-12-18T01:45:36;-3.80;99.90
780;DHT22;373;49.342;8.146;2022-12-18T01:48:06;-4.10;99.90
780;DHT22;373;49.342;8.146;2022-12-18T01:50:38;-4.20;99.90
780;DHT22;373;49.342;8.146;2022-12-18T01:53:11;-4.20;99.90
780;DHT22;373;49.342;8.146;2022-12-18T01:55:42;-4.20;99.90
780;DHT22;373;49.342;8.146;2022-12-18T01:58:19;-4.30;99.90
780;DHT22;373;49.342;8.146;2022-12-18T02:00:47;-4.30;99.90
780;DHT22;373;49.342;8.146;2022-12-18T02:03:14;-4.00;99.90
780;DHT22;373;49.342;8.146;2022-12-18T02:05:45;-4.00;99.90
780;DHT22;373;49.342;8.146;2022-12-18T02:08:22;-4.20;99.90
780;DHT22;373;49.342;8.146;2022-12-18T02:10:56;-4.40;99.90
780;DHT22;373;49.342;8.146;2022-12-18T02:13:32;-4.40;99.90
780;DHT22;373;49.342;8.146;2022-12-18T02:16:05;-4.30;99.90
780;DHT22;373;49.342;8.146;2022-12-18T02:18:43;-4.30;99.90
780;DHT22;373;49.342;8.146;2022-12-18T02:21:18;-4.20;99.90
780;DHT22;373;49.342;8.146;2022-12-18T02:23:57;-4.30;99.90
780;DHT22;373;49.342;8.146;2022-12-18T02:26:35;-4.20;99.90
780;DHT22;373;49.342;8.146;2022-12-18T02:29:08;-4.20;99.90
780;DHT22;373;49.342;8.146;2022-12-18T02:31:44;-3.80;99.90
780;DHT22;373;49.342;8.146;2022-12-18T02:34:16;-3.70;99.90
780;DHT22;373;49.342;8.146;2022-12-18T02:36:48;-4.00;99.90
780;DHT22;373;49.342;8.146;2022-12-18T02:39:16;-4.10;99.90
780;DHT22;373;49.342;8.146;2022-12-18T02:42:00;-4.00;99.90
780;DHT22;373;49.342;8.146;2022-12-18T02:44:34;-4.10;99.90
780;DHT22;373;49.342;8.146;2022-12-18T02:47:04;-4.10;99.90
780;DHT22;373;49.342;8.146;2022-12-18T02:49:36;-4.00;99.90
780;DHT22;373;49.342;8.146;2022-12-18T02:52:17;-4.10;99.90
780;DHT22;373;49.342;8.146;2022-12-18T02:54:57;-4.00;99.90
780;DHT22;373;49.342;8.146;2022-12-18T02:57:34;-4.00;99.90
780;DHT22;373;49.342;8.146;2022-12-18T03:00:08;-3.80;99.90
780;DHT22;373;49.342;8.146;2022-12-18T03:02:44;-3.50;99.90
780;DHT22;373;49.342;8.146;2022-12-18T03:05:16;-3.40;99.90
780;DHT22;373;49.342;8.146;2022-12-18T03:07:49;-3.30;99.90
780;DHT22;373;49.342;8.146;2022-12-18T03:10:23;-3.00;99.80
780;DHT22;373;49.342;8.146;2022-12-18T03:12:57;-3.10;99.90
780;DHT22;373;49.342;8.146;2022-12-18T03:15:28;-3.30;98.20
780;DHT22;373;49.342;8.146;2022-12-18T03:18:08;-3.90;99.90
780;DHT22;373;49.342;8.146;2022-12-18T03:20:37;-3.80;99.90
780;DHT22;373;49.342;8.146;2022-12-18T03:23:09;-4.00;99.90
780;DHT22;373;49.342;8.146;2022-12-18T03:25:41;-3.80;99.90
780;DHT22;373;49.342;8.146;2022-12-18T03:28:12;-3.60;99.90
780;DHT22;373;49.342;8.146;2022-12-18T03:30:44;-3.60;99.90
780;DHT22;373;49.342;8.146;2022-12-18T03:33:15;-4.00;99.90
780;DHT22;373;49.342;8.146;2022-12-18T03:35:47;-3.80;99.90
780;DHT22;373;49.342;8.146;2022-12-18T03:38:17;-3.70;99.90
780;DHT22;373;49.342;8.146;2022-12-18T03:40:53;-4.00;99.90
780;DHT22;373;49.342;8.146;2022-12-18T03:43:34;-4.30;99.90
780;DHT22;373;49.342;8.146;2022-12-18T03:46:06;-4.60;99.90
780;DHT22;373;49.342;8.146;2022-12-18T03:48:38;-4.40;99.90
780;DHT22;373;49.342;8.146;2022-12-18T03:51:14;-4.50;99.90
780;DHT22;373;49.342;8.146;2022-12-18T03:53:49;-4.50;99.90
780;DHT22;373;49.342;8.146;2022-12-18T03:56:22;-4.30;99.90
780;DHT22;373;49.342;8.146;2022-12-18T03:58:52;-4.40;99.90
780;DHT22;373;49.342;8.146;2022-12-18T04:01:25;-4.40;99.90
780;DHT22;373;49.342;8.146;2022-12-18T04:03:54;-4.60;99.90
780;DHT22;373;49.342;8.146;2022-12-18T04:06:21;-4.90;99.90
780;DHT22;373;49.342;8.146;2022-12-18T04:08:51;-4.90;99.90
780;DHT22;373;49.342;8.146;2022-12-18T04:11:21;-4.60;99.90
780;DHT22;373;49.342;8.146;2022-12-18T04:13:48;-4.10;99.90
780;DHT22;373;49.342;8.146;2022-12-18T04:16:22;-4.40;99.90
780;DHT22;373;49.342;8.146;2022-12-18T04:18:53;-3.90;99.90
780;DHT22;373;49.342;8.146;2022-12-18T04:21:23;-3.50;99.90
780;DHT22;373;49.342;8.146;2022-12-18T04:23:51;-2.50;99.90
780;DHT22;373;49.342;8.146;2022-12-18T04:26:21;-1.30;99.90
780;DHT22;373;49.342;8.146;2022-12-18T04:29:11;-1.90;99.90
780;DHT22;373;49.342;8.146;2022-12-18T04:31:40;-2.50;98.70
780;DHT22;373;49.342;8.146;2022-12-18T04:34:09;-2.90;98.80
780;DHT22;373;49.342;8.146;2022-12-18T04:36:42;-3.40;99.90
780;DHT22;373;49.342;8.146;2022-12-18T04:39:09;-3.60;99.90
780;DHT22;373;49.342;8.146;2022-12-18T04:41:36;-3.90;99.90
780;DHT22;373;49.342;8.146;2022-12-18T04:44:04;-3.80;99.90
780;DHT22;373;49.342;8.146;2022-12-18T04:46:31;-3.70;99.90
780;DHT22;373;49.342;8.146;2022-12-18T04:49:00;-3.60;99.90
780;DHT22;373;49.342;8.146;2022-12-18T04:51:27;-3.60;99.90
780;DHT22;373;49.342;8.146;2022-12-18T04:53:54;-3.60;99.90
780;DHT22;373;49.342;8.146;2022-12-18T04:56:21;-3.70;99.90
780;DHT22;373;49.342;8.146;2022-12-18T04:58:48;-3.50;99.90
780;DHT22;373;49.342;8.146;2022-12-18T05:01:17;-3.60;99.90
780;DHT22;373;49.342;8.146;2022-12-18T05:03:44;-4.10;99.90
780;DHT22;373;49.342;8.146;2022-12-18T05:06:13;-4.20;99.90
780;DHT22;373;49.342;8.146;2022-12-18T05:08:40;-4.10;99.90
780;DHT22;373;49.342;8.146;2022-12-18T05:11:09;-4.00;99.90
780;DHT22;373;49.342;8.146;2022-12-18T05:13:36;-3.80;99.90
780;DHT22;373;49.342;8.146;2022-12-18T05:16:05;-3.90;99.90
780;DHT22;373;49.342;8.146;2022-12-18T05:18:32;-4.00;99.90
780;DHT22;373;49.342;8.146;2022-12-18T05:21:00;-4.00;99.90
780;DHT22;373;49.342;8.146;2022-12-18T05:23:29;-4.20;99.90
780;DHT22;373;49.342;8.146;2022-12-18T05:25:58;-4.20;99.90
780;DHT22;373;49.342;8.146;2022-12-18T05:28:27;-4.30;99.90
780;DHT22;373;49.342;8.146;2022-12-18T05:30:56;-4.20;99.90
780;DHT22;373;49.342;8.146;2022-12-18T05:33:26;-4.00;99.90
780;DHT22;373;49.342;8.146;2022-12-18T05:35:55;-3.80;99.90
780;DHT22;373;49.342;8.146;2022-12-18T05:38:23;-4.00;99.90
780;DHT22;373;49.342;8.146;2022-12-18T05:40:53;-4.10;99.90
780;DHT22;373;49.342;8.146;2022-12-18T05:43:22;-3.80;99.90
780;DHT22;373;49.342;8.146;2022-12-18T05:45:50;-3.90;99.90
780;DHT22;373;49.342;8.146;2022-12-18T05:48:17;-3.70;99.90
780;DHT22;373;49.342;8.146;2022-12-18T05:50:46;-3.80;99.90
780;DHT22;373;49.342;8.146;2022-12-18T05:53:14;-3.80;99.80
780;DHT22;373;49.342;8.146;2022-12-18T05:55:42;-3.60;99.90
780;DHT22;373;49.342;8.146;2022-12-18T05:58:12;-3.80;99.60
780;DHT22;373;49.342;8.146;2022-12-18T06:00:40;-3.80;99.80
780;DHT22;373;49.342;8.146;2022-12-18T06:03:09;-3.90;99.90
780;DHT22;373;49.342;8.146;2022-12-18T06:05:37;-3.50;99.90
780;DHT22;373;49.342;8.146;2022-12-18T06:08:05;-3.60;99.10
780;DHT22;373;49.342;8.146;2022-12-18T06:10:32;-3.60;99.60
780;DHT22;373;49.342;8.146;2022-12-18T06:12:59;-3.60;98.90
780;DHT22;373;49.342;8.146;2022-12-18T06:15:28;-4.10;98.30
780;DHT22;373;49.342;8.146;2022-12-18T06:17:55;-4.30;99.90
780;DHT22;373;49.342;8.146;2022-12-18T06:20:22;-4.10;99.90
780;DHT22;373;49.342;8.146;2022-12-18T06:22:50;-4.00;99.90
780;DHT22;373;49.342;8.146;2022-12-18T06:25:17;-3.70;99.90
780;DHT22;373;49.342;8.146;2022-12-18T06:27:44;-3.70;99.40
780;DHT22;373;49.342;8.146;2022-12-18T06:30:14;-3.80;99.90
780;DHT22;373;49.342;8.146;2022-12-18T06:32:43;-4.00;99.90
780;DHT22;373;49.342;8.146;2022-12-18T06:35:10;-4.00;99.90
780;DHT22;373;49.342;8.146;2022-12-18T06:37:37;-4.10;99.90
780;DHT22;373;49.342;8.146;2022-12-18T06:40:08;-4.10;99.90
780;DHT22;373;49.342;8.146;2022-12-18T06:42:36;-4.00;99.90
780;DHT22;373;49.342;8.146;2022-12-18T06:45:03;-4.00;99.90
780;DHT22;373;49.342;8.146;2022-12-18T06:47:30;-3.70;99.90
780;DHT22;373;49.342;8.146;2022-12-18T06:49:59;-3.80;99.90
780;DHT22;373;49.342;8.146;2022-12-18T06:52:26;-4.00;99.90
780;DHT22;373;49.342;8.146;2022-12-18T06:54:53;-4.20;99.90
780;DHT22;373;49.342;8.146;2022-12-18T06:57:20;-4.60;99.90
780;DHT22;373;49.342;8.146;2022-12-18T06:59:47;-4.60;99.90
780;DHT22;373;49.342;8.146;2022-12-18T07:02:14;-4.60;99.90
780;DHT22;373;49.342;8.146;2022-12-18T07:04:41;-4.70;99.90
780;DHT22;373;49.342;8.146;2022-12-18T07:07:09;-4.70;99.90
780;DHT22;373;49.342;8.146;2022-12-18T07:09:36;-4.60;99.90
780;DHT22;373;49.342;8.146;2022-12-18T07:12:04;-4.80;99.90
780;DHT22;373;49.342;8.146;2022-12-18T07:14:32;-4.70;99.90
780;DHT22;373;49.342;8.146;2022-12-18T07:16:59;-4.90;99.90
780;DHT22;373;49.342;8.146;2022-12-18T07:19:26;-4.90;99.90
780;DHT22;373;49.342;8.146;2022-12-18T07:21:53;-4.90;99.90
780;DHT22;373;49.342;8.146;2022-12-18T07:24:22;-4.90;99.90
780;DHT22;373;49.342;8.146;2022-12-18T07:26:49;-5.10;99.90
780;DHT22;373;49.342;8.146;2022-12-18T07:29:16;-5.10;99.90
780;DHT22;373;49.342;8.146;2022-12-18T07:31:43;-5.10;99.90
780;DHT22;373;49.342;8.146;2022-12-18T07:34:11;-5.20;99.90
780;DHT22;373;49.342;8.146;2022-12-18T07:36:38;-5.10;99.90
780;DHT22;373;49.342;8.146;2022-12-18T07:39:05;-5.00;99.90
780;DHT22;373;49.342;8.146;2022-12-18T07:41:34;-4.60;99.90
780;DHT22;373;49.342;8.146;2022-12-18T07:44:09;-4.70;99.90
780;DHT22;373;49.342;8.146;2022-12-18T07:46:36;-4.50;99.90
780;DHT22;373;49.342;8.146;2022-12-18T07:49:03;-4.30;99.90
780;DHT22;373;49.342;8.146;2022-12-18T07:51:31;-3.80;99.90
780;DHT22;373;49.342;8.146;2022-12-18T07:53:58;-3.70;99.90
780;DHT22;373;49.342;8.146;2022-12-18T07:56:26;-3.60;99.90
780;DHT22;373;49.342;8.146;2022-12-18T07:58:54;-3.20;99.90
780;DHT22;373;49.342;8.146;2022-12-18T08:01:21;-2.70;98.90
780;DHT22;373;49.342;8.146;2022-12-18T08:03:48;-2.40;97.60
780;DHT22;373;49.342;8.146;2022-12-18T08:06:15;-2.10;97.60
780;DHT22;373;49.342;8.146;2022-12-18T08:08:42;-1.70;94.90
780;DHT22;373;49.342;8.146;2022-12-18T08:11:09;-1.90;95.10
780;DHT22;373;49.342;8.146;2022-12-18T08:13:37;-1.60;94.40
780;DHT22;373;49.342;8.146;2022-12-18T08:16:07;-1.60;93.80
780;DHT22;373;49.342;8.146;2022-12-18T08:18:35;-0.90;93.50
780;DHT22;373;49.342;8.146;2022-12-18T08:21:09;-0.90;92.20
780;DHT22;373;49.342;8.146;2022-12-18T08:23:36;-1.10;93.20
780;DHT22;373;49.342;8.146;2022-12-18T08:26:03;-0.30;92.50
780;DHT22;373;49.342;8.146;2022-12-18T08:28:30;-0.50;91.00
780;DHT22;373;49.342;8.146;2022-12-18T08:30:57;-0.80;91.10
780;DHT22;373;49.342;8.146;2022-12-18T08:33:26;-0.50;91.60
780;DHT22;373;49.342;8.146;2022-12-18T08:35:54;-0.40;90.70
780;DHT22;373;49.342;8.146;2022-12-18T08:38:21;-0.70;90.90
780;DHT22;373;49.342;8.146;2022-12-18T08:40:48;-0.50;91.20
780;DHT22;373;49.342;8.146;2022-12-18T08:43:15;0.40;90.10
780;DHT22;373;49.342;8.146;2022-12-18T08:46:00;0.10;88.20
780;DHT22;373;49.342;8.146;2022-12-18T08:48:28;-0.20;89.50
780;DHT22;373;49.342;8.146;2022-12-18T08:50:56;0.10;89.80
780;DHT22;373;49.342;8.146;2022-12-18T08:53:31;-0.50;90.00
780;DHT22;373;49.342;8.146;2022-12-18T08:55:58;-0.20;90.60
780;DHT22;373;49.342;8.146;2022-12-18T08:58:34;-0.60;89.70
780;DHT22;373;49.342;8.146;2022-12-18T09:01:07;-0.70;91.10
780;DHT22;373;49.342;8.146;2022-12-18T09:03:41;-1.20;91.20
780;DHT22;373;49.342;8.146;2022-12-18T09:06:08;-0.90;92.20
780;DHT22;373;49.342;8.146;2022-12-18T09:08:36;-1.20;91.90
780;DHT22;373;49.342;8.146;2022-12-18T09:11:03;-1.40;92.70
780;DHT22;373;49.342;8.146;2022-12-18T09:13:30;-0.70;91.90
780;DHT22;373;49.342;8.146;2022-12-18T09:15:57;-0.20;91.60
780;DHT22;373;49.342;8.146;2022-12-18T09:18:24;-0.10;90.40
780;DHT22;373;49.342;8.146;2022-12-18T09:20:56;-0.20;89.50
780;DHT22;373;49.342;8.146;2022-12-18T09:23:23;-0.60;90.70
780;DHT22;373;49.342;8.146;2022-12-18T09:25:50;-0.40;90.80
780;DHT22;373;49.342;8.146;2022-12-18T09:28:18;-0.80;90.70
780;DHT22;373;49.342;8.146;2022-12-18T09:30:47;-0.80;91.10
780;DHT22;373;49.342;8.146;2022-12-18T09:33:15;-0.60;91.30
780;DHT22;373;49.342;8.146;2022-12-18T09:35:43;-1.40;91.50
780;DHT22;373;49.342;8.146;2022-12-18T10:10:27;3.00;85.00
780;DHT22;373;49.342;8.146;2022-12-18T10:13:02;3.50;79.30
780;DHT22;373;49.342;8.146;2022-12-18T10:15:38;2.50;78.50
780;DHT22;373;49.342;8.146;2022-12-18T10:18:19;1.50;82.10
780;DHT22;373;49.342;8.146;2022-12-18T10:20:49;0.30;84.40
780;DHT22;373;49.342;8.146;2022-12-18T10:23:21;0.00;88.30
780;DHT22;373;49.342;8.146;2022-12-18T10:25:59;-0.70;90.10
780;DHT22;373;49.342;8.146;2022-12-18T10:28:29;-1.20;91.20
780;DHT22;373;49.342;8.146;2022-12-18T10:30:58;-1.50;91.80
780;DHT22;373;49.342;8.146;2022-12-18T10:33:29;-2.20;93.50
780;DHT22;373;49.342;8.146;2022-12-18T10:35:57;-1.90;95.90
780;DHT22;373;49.342;8.146;2022-12-18T10:38:26;-1.70;94.60
780;DHT22;373;49.342;8.146;2022-12-18T10:40:57;-2.10;95.00
780;DHT22;373;49.342;8.146;2022-12-18T10:43:26;-2.00;95.10
780;DHT22;373;49.342;8.146;2022-12-18T10:46:02;-2.60;95.40
780;DHT22;373;49.342;8.146;2022-12-18T10:48:32;-2.50;97.80
780;DHT22;373;49.342;8.146;2022-12-18T10:51:00;-2.60;97.30
780;DHT22;373;49.342;8.146;2022-12-18T10:53:28;-2.60;97.70
780;DHT22;373;49.342;8.146;2022-12-18T10:55:58;-2.90;96.90
780;DHT22;373;49.342;8.146;2022-12-18T10:58:27;-3.20;99.80
780;DHT22;373;49.342;8.146;2022-12-18T11:01:07;-3.20;99.90
780;DHT22;373;49.342;8.146;2022-12-18T11:03:36;-3.50;99.90
780;DHT22;373;49.342;8.146;2022-12-18T11:06:06;-3.40;99.90
780;DHT22;373;49.342;8.146;2022-12-18T11:08:34;-3.40;99.90
780;DHT22;373;49.342;8.146;2022-12-18T11:11:06;-3.40;99.90
780;DHT22;373;49.342;8.146;2022-12-18T11:13:34;-3.20;99.90
780;DHT22;373;49.342;8.146;2022-12-18T11:16:01;-3.30;99.90
780;DHT22;373;49.342;8.146;2022-12-18T11:18:30;-3.10;99.90
780;DHT22;373;49.342;8.146;2022-12-18T11:21:00;-3.20;99.90
780;DHT22;373;49.342;8.146;2022-12-18T11:23:32;-2.80;99.90
780;DHT22;373;49.342;8.146;2022-12-18T11:26:03;-2.70;99.60
780;DHT22;373;49.342;8.146;2022-12-18T11:28:51;-3.00;99.10
780;DHT22;373;49.342;8.146;2022-12-18T11:32:08;-3.70;99.90
780;DHT22;373;49.342;8.146;2022-12-18T11:35:02;-3.90;99.90
780;DHT22;373;49.342;8.146;2022-12-18T11:37:32;-4.00;99.90
780;DHT22;373;49.342;8.146;2022-12-18T11:40:03;-4.10;99.90
780;DHT22;373;49.342;8.146;2022-12-18T11:42:37;-3.90;99.90
780;DHT22;373;49.342;8.146;2022-12-18T11:45:24;-3.70;99.90
780;DHT22;373;49.342;8.146;2022-12-18T11:47:56;-3.40;99.90
780;DHT22;373;49.342;8.146;2022-12-18T11:50:26;-3.30;99.90
780;DHT22;373;49.342;8.146;2022-12-18T11:52:56;-3.00;99.90
780;DHT22;373;49.342;8.146;2022-12-18T11:55:31;-2.90;99.90
780;DHT22;373;49.342;8.146;2022-12-18T11:58:07;-3.20;99.90
780;DHT22;373;49.342;8.146;2022-12-18T12:00:45;-3.00;99.90
780;DHT22;373;49.342;8.146;2022-12-18T12:03:46;-2.70;99.90
780;DHT22;373;49.342;8.146;2022-12-18T12:06:21;-2.40;99.60
780;DHT22;373;49.342;8.146;2022-12-18T12:09:00;-2.40;99.30
780;DHT22;373;49.342;8.146;2022-12-18T12:11:35;-2.10;99.80
780;DHT22;373;49.342;8.146;2022-12-18T12:14:30;-2.20;97.90
780;DHT22;373;49.342;8.146;2022-12-18T12:17:08;-2.60;99.40
780;DHT22;373;49.342;8.146;2022-12-18T12:19:49;-2.40;99.70
780;DHT22;373;49.342;8.146;2022-12-18T12:22:24;-2.40;99.90
780;DHT22;373;49.342;8.146;2022-12-18T12:25:02;-2.40;99.70
780;DHT22;373;49.342;8.146;2022-12-18T12:27:40;-2.50;99.20
780;DHT22;373;49.342;8.146;2022-12-18T12:30:18;-2.20;99.20
780;DHT22;373;49.342;8.146;2022-12-18T12:32:58;-2.00;98.30
780;DHT22;373;49.342;8.146;2022-12-18T12:35:37;-2.10;98.90
780;DHT22;373;49.342;8.146;2022-12-18T12:38:13;-2.10;97.70
780;DHT22;373;49.342;8.146;2022-12-18T12:40:44;-2.20;99.60
780;DHT22;373;49.342;8.146;2022-12-18T12:43:21;-1.90;98.50
780;DHT22;373;49.342;8.146;2022-12-18T12:45:53;-2.00;97.80
780;DHT22;373;49.342;8.146;2022-12-18T12:48:31;-2.00;98.90
780;DHT22;373;49.342;8.146;2022-12-18T12:51:01;-2.50;99.90
780;DHT22;373;49.342;8.146;2022-12-18T12:53:33;-2.30;99.20
780;DHT22;373;49.342;8.146;2022-12-18T12:56:01;-2.50;99.80
780;DHT22;373;49.342;8.146;2022-12-18T12:58:33;-2.70;99.90
780;DHT22;373;49.342;8.146;2022-12-18T13:01:17;-2.80;99.90
780;DHT22;373;49.342;8.146;2022-12-18T13:03:55;-2.60;99.90
780;DHT22;373;49.342;8.146;2022-12-18T13:06:33;-2.60;99.90
780;DHT22;373;49.342;8.146;2022-12-18T13:09:03;-2.60;99.90
780;DHT22;373;49.342;8.146;2022-12-18T13:11:38;-2.60;99.90
780;DHT22;373;49.342;8.146;2022-12-18T13:14:29;-2.70;99.90
780;DHT22;373;49.342;8.146;2022-12-18T13:17:29;-3.10;99.90
780;DHT22;373;49.342;8.146;2022-12-18T13:20:09;-2.90;99.90
780;DHT22;373;49.342;8.146;2022-12-18T13:22:40;-2.80;99.90
780;DHT22;373;49.342;8.146;2022-12-18T13:25:35;-3.10;99.90
780;DHT22;373;49.342;8.146;2022-12-18T13:28:21;-3.00;99.90
780;DHT22;373;49.342;8.146;2022-12-18T13:30:54;-2.90;99.90
780;DHT22;373;49.342;8.146;2022-12-18T13:33:50;-2.70;99.90
780;DHT22;373;49.342;8.146;2022-12-18T13:36:36;-2.90;99.90
780;DHT22;373;49.342;8.146;2022-12-18T13:39:24;-2.70;99.90
780;DHT22;373;49.342;8.146;2022-12-18T13:41:53;-2.60;99.90
780;DHT22;373;49.342;8.146;2022-12-18T13:44:29;-2.50;99.90
780;DHT22;373;49.342;8.146;2022-12-18T13:46:58;-2.30;99.90
780;DHT22;373;49.342;8.146;2022-12-18T13:49:35;-2.20;99.90
780;DHT22;373;49.342;8.146;2022-12-18T13:52:15;-2.60;99.90
780;DHT22;373;49.342;8.146;2022-12-18T13:54:43;-2.70;99.90
780;DHT22;373;49.342;8.146;2022-12-18T13:57:26;-2.70;99.90
780;DHT22;373;49.342;8.146;2022-12-18T13:59:53;-2.60;99.90
780;DHT22;373;49.342;8.146;2022-12-18T14:02:23;-2.30;99.90
780;DHT22;373;49.342;8.146;2022-12-18T14:04:52;-2.10;99.90
780;DHT22;373;49.342;8.146;2022-12-18T14:07:22;-2.00;99.90
780;DHT22;373;49.342;8.146;2022-12-18T14:09:52;-2.10;99.90
780;DHT22;373;49.342;8.146;2022-12-18T14:12:22;-2.10;99.90
780;DHT22;373;49.342;8.146;2022-12-18T14:15:20;-2.10;99.90
780;DHT22;373;49.342;8.146;2022-12-18T14:17:50;-2.30;99.90
780;DHT22;373;49.342;8.146;2022-12-18T14:20:19;-2.40;99.90
780;DHT22;373;49.342;8.146;2022-12-18T14:22:48;-2.40;99.90
780;DHT22;373;49.342;8.146;2022-12-18T14:25:18;-2.30;99.90
780;DHT22;373;49.342;8.146;2022-12-18T14:27:48;-2.40;99.90
780;DHT22;373;49.342;8.146;2022-12-18T14:30:24;-2.30;99.90
780;DHT22;373;49.342;8.146;2022-12-18T14:33:00;-2.20;99.90
780;DHT22;373;49.342;8.146;2022-12-18T14:35:29;-2.10;99.90
780;DHT22;373;49.342;8.146;2022-12-18T14:38:10;-2.00;99.90
780;DHT22;373;49.342;8.146;2022-12-18T14:40:37;-1.80;99.90
780;DHT22;373;49.342;8.146;2022-12-18T14:43:04;-2.00;99.90
780;DHT22;373;49.342;8.146;2022-12-18T14:45:36;-2.00;99.90
780;DHT22;373;49.342;8.146;2022-12-18T14:48:07;-2.20;99.90
780;DHT22;373;49.342;8.146;2022-12-18T14:50:35;-2.20;99.90
780;DHT22;373;49.342;8.146;2022-12-18T14:53:03;-2.20;99.90
780;DHT22;373;49.342;8.146;2022-12-18T14:55:30;-2.20;99.90
780;DHT22;373;49.342;8.146;2022-12-18T14:57:57;-2.20;99.90
780;DHT22;373;49.342;8.146;2022-12-18T15:00:25;-2.10;99.90
780;DHT22;373;49.342;8.146;2022-12-18T15:02:54;-2.00;99.90
780;DHT22;373;49.342;8.146;2022-12-18T15:05:26;-2.00;99.90
780;DHT22;373;49.342;8.146;2022-12-18T15:07:57;-2.00;99.90
780;DHT22;373;49.342;8.146;2022-12-18T15:10:46;-2.10;99.90
780;DHT22;373;49.342;8.146;2022-12-18T15:13:23;-2.20;99.90
780;DHT22;373;49.342;8.146;2022-12-18T15:15:51;-2.20;99.90
780;DHT22;373;49.342;8.146;2022-12-18T15:18:20;-2.10;99.90
780;DHT22;373;49.342;8.146;2022-12-18T15:20:50;-2.10;99.90
780;DHT22;373;49.342;8.146;2022-12-18T15:23:21;-2.00;99.90
780;DHT22;373;49.342;8.146;2022-12-18T15:25:54;-2.00;99.90
780;DHT22;373;49.342;8.146;2022-12-18T15:28:33;-1.90;99.90
780;DHT22;373;49.342;8.146;2022-12-18T15:31:36;-1.90;99.90
780;DHT22;373;49.342;8.146;2022-12-18T15:34:18;-1.80;99.90
780;DHT22;373;49.342;8.146;2022-12-18T15:36:46;-1.80;99.90
780;DHT22;373;49.342;8.146;2022-12-18T15:39:16;-1.70;99.90
780;DHT22;373;49.342;8.146;2022-12-18T15:41:48;-1.70;99.90
780;DHT22;373;49.342;8.146;2022-12-18T15:44:33;-1.70;99.90
780;DHT22;373;49.342;8.146;2022-12-18T15:47:00;-1.70;99.90
780;DHT22;373;49.342;8.146;2022-12-18T15:49:29;-1.60;99.90
780;DHT22;373;49.342;8.146;2022-12-18T15:51:58;-1.60;99.90
780;DHT22;373;49.342;8.146;2022-12-18T15:54:29;-1.50;99.90
780;DHT22;373;49.342;8.146;2022-12-18T15:57:13;-1.30;99.90
780;DHT22;373;49.342;8.146;2022-12-18T15:59:49;-1.30;99.90
780;DHT22;373;49.342;8.146;2022-12-18T16:02:19;-1.30;99.90
780;DHT22;373;49.342;8.146;2022-12-18T16:04:48;-1.10;99.90
780;DHT22;373;49.342;8.146;2022-12-18T16:07:15;-1.00;99.90
780;DHT22;373;49.342;8.146;2022-12-18T16:09:47;-1.10;99.90
780;DHT22;373;49.342;8.146;2022-12-18T16:12:17;-1.20;99.90
780;DHT22;373;49.342;8.146;2022-12-18T16:14:45;-1.00;99.90
780;DHT22;373;49.342;8.146;2022-12-18T16:17:13;-1.30;99.90
780;DHT22;373;49.342;8.146;2022-12-18T16:19:40;-1.30;99.90
780;DHT22;373;49.342;8.146;2022-12-18T16:22:18;-1.20;99.90
780;DHT22;373;49.342;8.146;2022-12-18T16:24:47;-1.20;99.90
780;DHT22;373;49.342;8.146;2022-12-18T16:27:15;-1.40;99.90
780;DHT22;373;49.342;8.146;2022-12-18T16:29:42;-1.40;99.90
780;DHT22;373;49.342;8.146;2022-12-18T16:32:12;-1.40;99.90
780;DHT22;373;49.342;8.146;2022-12-18T16:34:40;-1.30;99.90
780;DHT22;373;49.342;8.146;2022-12-18T16:37:09;-1.20;99.90
780;DHT22;373;49.342;8.146;2022-12-18T16:39:37;-1.30;99.90
780;DHT22;373;49.342;8.146;2022-12-18T16:42:10;-1.40;99.90
780;DHT22;373;49.342;8.146;2022-12-18T16:44:40;-1.20;99.90
780;DHT22;373;49.342;8.146;2022-12-18T16:47:08;-1.30;99.90
780;DHT22;373;49.342;8.146;2022-12-18T16:49:35;-1.30;99.90
780;DHT22;373;49.342;8.146;2022-12-18T16:52:02;-1.30;99.90
780;DHT22;373;49.342;8.146;2022-12-18T16:54:31;-1.20;99.90
780;DHT22;373;49.342;8.146;2022-12-18T16:56:59;-1.10;99.90
780;DHT22;373;49.342;8.146;2022-12-18T16:59:28;-1.20;99.90
780;DHT22;373;49.342;8.146;2022-12-18T17:01:55;-1.30;99.90
780;DHT22;373;49.342;8.146;2022-12-18T17:04:23;-1.20;99.90
780;DHT22;373;49.342;8.146;2022-12-18T17:06:50;-1.10;99.90
780;DHT22;373;49.342;8.146;2022-12-18T17:09:19;-1.00;99.90
780;DHT22;373;49.342;8.146;2022-12-18T17:11:49;-1.10;99.90
780;DHT22;373;49.342;8.146;2022-12-18T17:14:18;-0.90;99.90
780;DHT22;373;49.342;8.146;2022-12-18T17:16:47;-1.10;99.90
780;DHT22;373;49.342;8.146;2022-12-18T17:19:14;-1.00;99.90
780;DHT22;373;49.342;8.146;2022-12-18T17:21:46;-0.90;99.90
780;DHT22;373;49.342;8.146;2022-12-18T17:24:14;-0.90;99.90
780;DHT22;373;49.342;8.146;2022-12-18T17:26:42;-1.00;99.90
780;DHT22;373;49.342;8.146;2022-12-18T17:29:12;-1.00;99.90
780;DHT22;373;49.342;8.146;2022-12-18T17:31:39;-1.00;99.90
780;DHT22;373;49.342;8.146;2022-12-18T17:34:09;-1.00;99.90